Terminal Aerodrome Forecast
Issued by NWS Jacksonville, FL

Home | Current Version | Previous Version | Text Only | Print | Product List | Glossary On
Versions: 1 2 3 4 5 6 7 8 9 10 11 12 13 14 15 16 17 18 19 20 21 22 23
651
FTUS42 KJAX 301004 AAA
TAFGNV
TAF AMD
KGNV 301004Z 3010/3106 29002KT 5SM BR OVC009
     FM301300 31005KT P6SM SCT025 BKN250
     FM301900 32006KT P6SM VCTS SCT040CB BKN200
     FM302300 01005KT P6SM SCT120 BKN150=

USA.gov is the U.S. government's official web portal to all federal, state and local government web resources and services.